Terminal Aerodrome Forecast
Issued by NWS

Current Version | Previous Version | Graphics & Text | Print | Product List | Glossary On
Versions: 1 2 3 4 5 6 7 8 9 10 11 12 13 14 15 16 17 18 19 20 21 22
000
FTUS41 KRLX 220307 AAA
TAFCKB
TAF AMD
KCKB 220307Z 2203/2224 00000KT P6SM FEW040
     FM220900 VRB03KT P6SM BKN035
     FM221200 VRB03KT 4SM BR SCT035
     FM221400 27004KT P6SM SCT035
     FM221600 28005KT P6SM SCT040=

USA.gov is the U.S. government's official web portal to all federal, state and local government web resources and services.